Terminal Aerodrome Forecast
Issued by NWS

Home | Current Version | Previous Version | Text Only | Print | Product List | Glossary On
Versions: 1 2 3 4 5 6 7 8 9 10 11 12 13 14 15 16
000
FTAK31 PANC 180539
TAFATK
TAF
PATK 180539Z 1806/1906 VRB04KT P6SM -SHRA SCT028 OVC050
      TEMPO 1806/1810 4SM SHRA BR BKN028
     FM181000 VRB04KT P6SM SCT012 OVC040
     FM190000 22006KT P6SM -SHRA SCT025 OVC050=

USA.gov is the U.S. government's official web portal to all federal, state and local government web resources and services.